Home   Weather   Greece   Ios   Past weeks
Flag for Greece

Past Weather in Ios, Greece — Yesterday and Last 2 Weeks

Currently: 86 °F. Sunny. (Weather station: Paros Community Airport, Greece). See more current weather

Past Weather in Ios — Graph

°F

Ios Temperature Yesterday

Maximum temperature yesterday: 84 °F (at 1:50 pm)
Minimum temperature yesterday: 75 °F (at 2:20 am)
Average temperature yesterday: 80 °F

High & Low Weather Summary for the Past Weeks

 TemperatureHumidityPressure
High91 °F (Jul 2, 5:50 pm)100% (Jul 5, 12:20 am)29.89 "Hg (Jul 5, 12:20 am)
Low72 °F (Jul 2, 2:50 am)20% (Jul 2, 5:50 pm)29.53 "Hg (Jul 3, 2:50 am)
Average81 °F58%29.75 "Hg
* Reported Jul 1 2:50 pm — Jul 16 2:50 pm, Ios. Weather by CustomWeather, © 2024

Note: Actual official high and low records may vary slightly from our data, if they occured in-between our weather recording intervals... More about our weather records

Ios Weather History for the Previous 24 Hours

Scroll right to see more
 ConditionsComfort  
Time TempWeatherWind HumidityBarometerVisibility
2:50 pm
Tue, Jul 16
86 °FSunny.25 mph38%29.74 "Hg10 mi
2:20 pm86 °FSunny.26 mph43%29.74 "Hg10 mi
1:50 pm84 °FSunny.25 mph45%29.74 "Hg10 mi
1:20 pm86 °FSunny.30 mph40%29.71 "Hg10 mi
12:50 pm84 °FSunny.28 mph48%29.71 "Hg10 mi
12:20 pm84 °FSunny.28 mph45%29.71 "Hg10 mi
11:20 am82 °FSunny.23 mph55%29.74 "Hg10 mi
10:50 am82 °FSunny.20 mph55%29.74 "Hg10 mi
10:20 am81 °FSunny.21 mph58%29.71 "Hg10 mi
9:50 am81 °FSunny.21 mph58%29.71 "Hg10 mi
9:20 am81 °FSunny.21 mph58%29.71 "Hg10 mi
8:50 am79 °FSunny.25 mph61%29.71 "Hg10 mi
8:20 am79 °FSunny.25 mph61%29.71 "Hg10 mi
7:50 am79 °FSunny.23 mph61%29.71 "Hg10 mi
7:20 am77 °FSunny.23 mph61%29.68 "Hg10 mi
6:50 am77 °FSunny.23 mph61%29.68 "Hg10 mi
6:20 am77 °FSunny.15 mph61%29.68 "Hg10 mi
5:50 am77 °FClear.9 mph61%29.68 "Hg10 mi
5:20 am77 °FClear.12 mph61%29.68 "Hg10 mi
4:50 am77 °FWarm.5 mph57%29.71 "HgN/A
4:20 am79 °FWarm.10 mph54%29.71 "HgN/A
3:50 am79 °FLight rain. Overcast.15 mph54%29.71 "HgN/A
8:50 pm
Mon, Jul 15
81 °FWarm.13 mph51%29.74 "HgN/A
8:20 pm81 °FSunny.13 mph51%29.74 "Hg10 mi
7:50 pm82 °FSunny.16 mph45%29.74 "Hg10 mi
7:20 pm82 °FSunny.20 mph42%29.74 "Hg10 mi
6:50 pm84 °FSunny.25 mph40%29.74 "Hg10 mi
6:20 pm84 °FSunny.24 mph40%29.71 "Hg10 mi
5:50 pm84 °FSunny.25 mph43%29.71 "Hg10 mi
5:20 pm84 °FSunny.20 mph45%29.74 "Hg10 mi
4:50 pm84 °FSunny.21 mph48%29.74 "Hg10 mi
4:20 pm84 °FSunny.22 mph48%29.74 "Hg10 mi
Weather by CustomWeather, © 2024

See weather overview